sensor_id;sensor_type;location;lat;lon;timestamp;P1;durP1;ratioP1;P2;durP2;ratioP2
24715;SDS011;12822;50.124;8.678;2022-10-31T00:02:07;33.70;;;14.70;;
24715;SDS011;12822;50.124;8.678;2022-10-31T00:04:32;32.17;;;15.25;;
24715;SDS011;12822;50.124;8.678;2022-10-31T00:06:58;30.13;;;14.57;;
24715;SDS011;12822;50.124;8.678;2022-10-31T00:09:24;30.98;;;14.27;;
24715;SDS011;12822;50.124;8.678;2022-10-31T00:11:50;26.05;;;13.85;;
24715;SDS011;12822;50.124;8.678;2022-10-31T00:14:16;30.60;;;13.18;;
24715;SDS011;12822;50.124;8.678;2022-10-31T00:16:42;31.38;;;14.02;;
24715;SDS011;12822;50.124;8.678;2022-10-31T00:19:08;33.92;;;14.32;;
24715;SDS011;12822;50.124;8.678;2022-10-31T00:21:34;23.17;;;12.32;;
24715;SDS011;12822;50.124;8.678;2022-10-31T00:24:01;27.25;;;13.63;;
24715;SDS011;12822;50.124;8.678;2022-10-31T00:26:27;27.95;;;13.45;;
24715;SDS011;12822;50.124;8.678;2022-10-31T00:28:54;24.77;;;13.07;;
24715;SDS011;12822;50.124;8.678;2022-10-31T00:31:20;29.92;;;13.35;;
24715;SDS011;12822;50.124;8.678;2022-10-31T00:33:46;24.92;;;12.90;;
24715;SDS011;12822;50.124;8.678;2022-10-31T00:36:13;25.90;;;13.23;;
24715;SDS011;12822;50.124;8.678;2022-10-31T00:38:39;25.27;;;12.20;;
24715;SDS011;12822;50.124;8.678;2022-10-31T00:41:05;25.52;;;12.80;;
24715;SDS011;12822;50.124;8.678;2022-10-31T00:43:31;23.65;;;11.95;;
24715;SDS011;12822;50.124;8.678;2022-10-31T00:45:57;20.55;;;11.77;;
24715;SDS011;12822;50.124;8.678;2022-10-31T00:48:23;29.15;;;12.52;;
24715;SDS011;12822;50.124;8.678;2022-10-31T00:50:49;26.20;;;13.05;;
24715;SDS011;12822;50.124;8.678;2022-10-31T00:53:15;23.67;;;11.68;;
24715;SDS011;12822;50.124;8.678;2022-10-31T00:55:41;27.02;;;12.77;;
24715;SDS011;12822;50.124;8.678;2022-10-31T00:58:07;25.55;;;11.90;;
24715;SDS011;12822;50.124;8.678;2022-10-31T01:00:33;29.73;;;12.50;;
24715;SDS011;12822;50.124;8.678;2022-10-31T01:02:59;24.60;;;12.95;;
24715;SDS011;12822;50.124;8.678;2022-10-31T01:05:25;23.38;;;11.77;;
24715;SDS011;12822;50.124;8.678;2022-10-31T01:07:51;23.55;;;11.93;;
24715;SDS011;12822;50.124;8.678;2022-10-31T01:10:17;24.30;;;11.85;;
24715;SDS011;12822;50.124;8.678;2022-10-31T01:12:44;23.65;;;12.55;;
24715;SDS011;12822;50.124;8.678;2022-10-31T01:15:11;23.45;;;11.32;;
24715;SDS011;12822;50.124;8.678;2022-10-31T01:17:37;23.73;;;12.45;;
24715;SDS011;12822;50.124;8.678;2022-10-31T01:20:04;21.13;;;11.23;;
24715;SDS011;12822;50.124;8.678;2022-10-31T01:22:30;25.90;;;12.27;;
24715;SDS011;12822;50.124;8.678;2022-10-31T01:24:56;21.88;;;12.15;;
24715;SDS011;12822;50.124;8.678;2022-10-31T01:27:22;25.67;;;12.68;;
24715;SDS011;12822;50.124;8.678;2022-10-31T01:29:51;23.58;;;11.50;;
24715;SDS011;12822;50.124;8.678;2022-10-31T01:32:19;23.85;;;12.45;;
24715;SDS011;12822;50.124;8.678;2022-10-31T01:34:49;22.15;;;11.27;;
24715;SDS011;12822;50.124;8.678;2022-10-31T01:37:15;24.80;;;12.13;;
24715;SDS011;12822;50.124;8.678;2022-10-31T01:39:41;23.23;;;12.80;;
24715;SDS011;12822;50.124;8.678;2022-10-31T01:42:09;22.00;;;11.35;;
24715;SDS011;12822;50.124;8.678;2022-10-31T01:47:11;26.70;;;12.15;;
24715;SDS011;12822;50.124;8.678;2022-10-31T01:54:44;20.25;;;11.77;;
24715;SDS011;12822;50.124;8.678;2022-10-31T01:57:11;24.73;;;11.65;;
24715;SDS011;12822;50.124;8.678;2022-10-31T01:59:40;22.63;;;12.70;;
24715;SDS011;12822;50.124;8.678;2022-10-31T02:02:08;22.02;;;11.93;;
24715;SDS011;12822;50.124;8.678;2022-10-31T02:04:34;22.23;;;11.95;;
24715;SDS011;12822;50.124;8.678;2022-10-31T02:07:02;22.88;;;12.77;;
24715;SDS011;12822;50.124;8.678;2022-10-31T02:09:29;26.75;;;12.23;;
24715;SDS011;12822;50.124;8.678;2022-10-31T02:11:57;29.92;;;12.43;;
24715;SDS011;12822;50.124;8.678;2022-10-31T02:14:28;21.65;;;11.10;;
24715;SDS011;12822;50.124;8.678;2022-10-31T02:16:57;26.27;;;12.90;;
24715;SDS011;12822;50.124;8.678;2022-10-31T02:22:23;22.98;;;11.68;;
24715;SDS011;12822;50.124;8.678;2022-10-31T02:25:03;24.55;;;11.95;;
24715;SDS011;12822;50.124;8.678;2022-10-31T02:27:37;24.30;;;11.52;;
24715;SDS011;12822;50.124;8.678;2022-10-31T02:32:35;25.13;;;11.18;;
24715;SDS011;12822;50.124;8.678;2022-10-31T02:35:21;19.25;;;10.85;;
24715;SDS011;12822;50.124;8.678;2022-10-31T02:45:13;21.58;;;10.57;;
24715;SDS011;12822;50.124;8.678;2022-10-31T02:47:40;23.50;;;10.25;;
24715;SDS011;12822;50.124;8.678;2022-10-31T02:52:34;25.75;;;9.80;;
24715;SDS011;12822;50.124;8.678;2022-10-31T02:55:41;23.00;;;11.20;;
24715;SDS011;12822;50.124;8.678;2022-10-31T03:00:24;19.20;;;10.23;;
24715;SDS011;12822;50.124;8.678;2022-10-31T03:03:11;21.88;;;10.48;;
24715;SDS011;12822;50.124;8.678;2022-10-31T03:08:28;20.23;;;10.15;;
24715;SDS011;12822;50.124;8.678;2022-10-31T03:10:59;17.65;;;11.60;;
24715;SDS011;12822;50.124;8.678;2022-10-31T03:15:53;21.25;;;10.80;;
24715;SDS011;12822;50.124;8.678;2022-10-31T03:18:23;18.52;;;10.27;;
24715;SDS011;12822;50.124;8.678;2022-10-31T03:20:54;18.70;;;10.23;;
24715;SDS011;12822;50.124;8.678;2022-10-31T03:23:21;21.42;;;10.30;;
24715;SDS011;12822;50.124;8.678;2022-10-31T03:25:48;25.05;;;12.05;;
24715;SDS011;12822;50.124;8.678;2022-10-31T03:28:15;17.27;;;11.05;;
24715;SDS011;12822;50.124;8.678;2022-10-31T03:30:42;20.13;;;10.60;;
24715;SDS011;12822;50.124;8.678;2022-10-31T03:33:10;22.30;;;10.70;;
24715;SDS011;12822;50.124;8.678;2022-10-31T03:35:38;18.05;;;10.00;;
24715;SDS011;12822;50.124;8.678;2022-10-31T03:38:07;20.70;;;10.45;;
24715;SDS011;12822;50.124;8.678;2022-10-31T03:40:33;15.13;;;9.50;;
24715;SDS011;12822;50.124;8.678;2022-10-31T03:43:03;19.85;;;10.05;;
24715;SDS011;12822;50.124;8.678;2022-10-31T03:45:32;18.77;;;10.23;;
24715;SDS011;12822;50.124;8.678;2022-10-31T03:48:01;23.58;;;9.93;;
24715;SDS011;12822;50.124;8.678;2022-10-31T03:50:29;16.70;;;9.77;;
24715;SDS011;12822;50.124;8.678;2022-10-31T03:53:13;23.38;;;9.93;;
24715;SDS011;12822;50.124;8.678;2022-10-31T03:55:43;13.98;;;9.68;;
24715;SDS011;12822;50.124;8.678;2022-10-31T03:58:24;22.70;;;10.05;;
24715;SDS011;12822;50.124;8.678;2022-10-31T04:00:51;21.30;;;9.57;;
24715;SDS011;12822;50.124;8.678;2022-10-31T04:03:21;18.77;;;10.02;;
24715;SDS011;12822;50.124;8.678;2022-10-31T04:05:49;18.95;;;9.52;;
24715;SDS011;12822;50.124;8.678;2022-10-31T04:08:17;21.02;;;10.00;;
24715;SDS011;12822;50.124;8.678;2022-10-31T04:10:46;23.90;;;10.57;;
24715;SDS011;12822;50.124;8.678;2022-10-31T04:13:14;19.42;;;9.98;;
24715;SDS011;12822;50.124;8.678;2022-10-31T04:15:41;22.40;;;10.52;;
24715;SDS011;12822;50.124;8.678;2022-10-31T04:18:09;19.80;;;10.15;;
24715;SDS011;12822;50.124;8.678;2022-10-31T04:20:36;22.67;;;9.73;;
24715;SDS011;12822;50.124;8.678;2022-10-31T04:23:02;24.42;;;11.10;;
24715;SDS011;12822;50.124;8.678;2022-10-31T04:25:29;22.75;;;10.90;;
24715;SDS011;12822;50.124;8.678;2022-10-31T04:27:55;23.77;;;11.20;;
24715;SDS011;12822;50.124;8.678;2022-10-31T04:30:21;23.35;;;11.18;;
24715;SDS011;12822;50.124;8.678;2022-10-31T04:32:47;20.83;;;11.13;;
24715;SDS011;12822;50.124;8.678;2022-10-31T04:35:13;25.50;;;11.05;;
24715;SDS011;12822;50.124;8.678;2022-10-31T04:37:39;23.75;;;11.73;;
24715;SDS011;12822;50.124;8.678;2022-10-31T04:40:08;22.38;;;11.85;;
24715;SDS011;12822;50.124;8.678;2022-10-31T04:42:34;21.42;;;10.27;;
24715;SDS011;12822;50.124;8.678;2022-10-31T04:45:00;19.42;;;10.85;;
24715;SDS011;12822;50.124;8.678;2022-10-31T04:47:26;16.90;;;10.15;;
24715;SDS011;12822;50.124;8.678;2022-10-31T04:49:52;18.75;;;9.10;;
24715;SDS011;12822;50.124;8.678;2022-10-31T04:52:18;19.88;;;10.05;;
24715;SDS011;12822;50.124;8.678;2022-10-31T04:54:44;25.50;;;9.68;;
24715;SDS011;12822;50.124;8.678;2022-10-31T04:57:09;16.65;;;9.68;;
24715;SDS011;12822;50.124;8.678;2022-10-31T04:59:35;18.17;;;9.27;;
24715;SDS011;12822;50.124;8.678;2022-10-31T05:02:01;15.82;;;7.93;;
24715;SDS011;12822;50.124;8.678;2022-10-31T05:04:27;23.35;;;8.95;;
24715;SDS011;12822;50.124;8.678;2022-10-31T05:06:53;17.75;;;9.32;;
24715;SDS011;12822;50.124;8.678;2022-10-31T05:09:19;17.13;;;8.93;;
24715;SDS011;12822;50.124;8.678;2022-10-31T05:11:45;21.55;;;10.40;;
24715;SDS011;12822;50.124;8.678;2022-10-31T05:14:11;21.20;;;10.15;;
24715;SDS011;12822;50.124;8.678;2022-10-31T05:16:37;15.27;;;9.32;;
24715;SDS011;12822;50.124;8.678;2022-10-31T05:19:03;19.00;;;9.75;;
24715;SDS011;12822;50.124;8.678;2022-10-31T05:21:29;15.93;;;9.00;;
24715;SDS011;12822;50.124;8.678;2022-10-31T05:23:55;14.73;;;9.00;;
24715;SDS011;12822;50.124;8.678;2022-10-31T05:26:21;18.88;;;9.18;;
24715;SDS011;12822;50.124;8.678;2022-10-31T05:28:47;17.38;;;9.02;;
24715;SDS011;12822;50.124;8.678;2022-10-31T05:31:13;17.90;;;9.48;;
24715;SDS011;12822;50.124;8.678;2022-10-31T05:33:39;20.98;;;9.02;;
24715;SDS011;12822;50.124;8.678;2022-10-31T05:36:05;14.90;;;9.05;;
24715;SDS011;12822;50.124;8.678;2022-10-31T05:38:31;17.88;;;8.88;;
24715;SDS011;12822;50.124;8.678;2022-10-31T05:40:57;22.63;;;9.60;;
24715;SDS011;12822;50.124;8.678;2022-10-31T05:43:24;19.98;;;8.90;;
24715;SDS011;12822;50.124;8.678;2022-10-31T05:45:54;19.58;;;9.30;;
24715;SDS011;12822;50.124;8.678;2022-10-31T05:48:20;19.92;;;9.73;;
24715;SDS011;12822;50.124;8.678;2022-10-31T05:50:47;18.92;;;9.40;;
24715;SDS011;12822;50.124;8.678;2022-10-31T05:53:13;16.88;;;8.63;;
24715;SDS011;12822;50.124;8.678;2022-10-31T05:55:39;17.60;;;7.90;;
24715;SDS011;12822;50.124;8.678;2022-10-31T05:58:05;19.15;;;9.15;;
24715;SDS011;12822;50.124;8.678;2022-10-31T06:00:31;19.50;;;8.70;;
24715;SDS011;12822;50.124;8.678;2022-10-31T06:03:00;23.60;;;9.75;;
24715;SDS011;12822;50.124;8.678;2022-10-31T06:05:26;14.73;;;9.15;;
24715;SDS011;12822;50.124;8.678;2022-10-31T06:07:52;17.63;;;9.30;;
24715;SDS011;12822;50.124;8.678;2022-10-31T06:10:18;20.17;;;9.32;;
24715;SDS011;12822;50.124;8.678;2022-10-31T06:12:45;16.50;;;8.80;;
24715;SDS011;12822;50.124;8.678;2022-10-31T06:15:11;22.52;;;11.00;;
24715;SDS011;12822;50.124;8.678;2022-10-31T06:17:37;16.75;;;8.95;;
24715;SDS011;12822;50.124;8.678;2022-10-31T06:20:04;14.60;;;8.73;;
24715;SDS011;12822;50.124;8.678;2022-10-31T06:22:30;20.70;;;10.13;;
24715;SDS011;12822;50.124;8.678;2022-10-31T06:24:56;17.85;;;9.60;;
24715;SDS011;12822;50.124;8.678;2022-10-31T06:27:22;16.02;;;9.65;;
24715;SDS011;12822;50.124;8.678;2022-10-31T06:29:48;19.48;;;9.80;;
24715;SDS011;12822;50.124;8.678;2022-10-31T06:32:14;20.48;;;9.38;;
24715;SDS011;12822;50.124;8.678;2022-10-31T06:34:40;17.20;;;9.40;;
24715;SDS011;12822;50.124;8.678;2022-10-31T06:37:07;20.90;;;9.95;;
24715;SDS011;12822;50.124;8.678;2022-10-31T06:39:33;16.77;;;9.35;;
24715;SDS011;12822;50.124;8.678;2022-10-31T06:41:59;14.90;;;9.75;;
24715;SDS011;12822;50.124;8.678;2022-10-31T06:44:25;18.08;;;9.38;;
24715;SDS011;12822;50.124;8.678;2022-10-31T06:46:51;20.23;;;9.55;;
24715;SDS011;12822;50.124;8.678;2022-10-31T06:49:17;20.27;;;9.82;;
24715;SDS011;12822;50.124;8.678;2022-10-31T06:51:46;18.45;;;9.43;;
24715;SDS011;12822;50.124;8.678;2022-10-31T06:54:12;16.73;;;8.82;;
24715;SDS011;12822;50.124;8.678;2022-10-31T06:56:38;19.02;;;8.43;;
24715;SDS011;12822;50.124;8.678;2022-10-31T06:59:04;19.75;;;8.32;;
24715;SDS011;12822;50.124;8.678;2022-10-31T07:01:30;16.73;;;8.80;;
24715;SDS011;12822;50.124;8.678;2022-10-31T07:03:57;16.20;;;8.13;;
24715;SDS011;12822;50.124;8.678;2022-10-31T07:06:23;13.70;;;8.40;;
24715;SDS011;12822;50.124;8.678;2022-10-31T07:08:49;14.07;;;8.65;;
24715;SDS011;12822;50.124;8.678;2022-10-31T07:11:15;14.68;;;8.13;;
24715;SDS011;12822;50.124;8.678;2022-10-31T07:13:41;14.45;;;7.68;;
24715;SDS011;12822;50.124;8.678;2022-10-31T07:16:07;16.60;;;7.65;;
24715;SDS011;12822;50.124;8.678;2022-10-31T07:18:36;13.85;;;7.40;;
24715;SDS011;12822;50.124;8.678;2022-10-31T07:21:03;16.02;;;6.72;;
24715;SDS011;12822;50.124;8.678;2022-10-31T07:23:29;16.45;;;7.20;;
24715;SDS011;12822;50.124;8.678;2022-10-31T07:25:58;16.08;;;7.47;;
24715;SDS011;12822;50.124;8.678;2022-10-31T07:28:24;16.48;;;8.02;;
24715;SDS011;12822;50.124;8.678;2022-10-31T07:30:55;17.17;;;7.82;;
24715;SDS011;12822;50.124;8.678;2022-10-31T07:33:22;12.52;;;7.75;;
24715;SDS011;12822;50.124;8.678;2022-10-31T07:35:51;14.20;;;8.25;;
24715;SDS011;12822;50.124;8.678;2022-10-31T07:38:17;16.05;;;8.27;;
24715;SDS011;12822;50.124;8.678;2022-10-31T07:40:43;20.15;;;8.05;;
24715;SDS011;12822;50.124;8.678;2022-10-31T07:43:12;14.07;;;8.55;;
24715;SDS011;12822;50.124;8.678;2022-10-31T07:45:38;19.27;;;7.57;;
24715;SDS011;12822;50.124;8.678;2022-10-31T07:48:04;14.88;;;7.55;;
24715;SDS011;12822;50.124;8.678;2022-10-31T07:50:31;16.88;;;8.05;;
24715;SDS011;12822;50.124;8.678;2022-10-31T07:53:01;15.32;;;8.20;;
24715;SDS011;12822;50.124;8.678;2022-10-31T07:55:27;17.05;;;8.77;;
24715;SDS011;12822;50.124;8.678;2022-10-31T08:00:50;18.42;;;8.80;;
24715;SDS011;12822;50.124;8.678;2022-10-31T08:03:17;16.25;;;8.93;;
24715;SDS011;12822;50.124;8.678;2022-10-31T08:05:43;15.93;;;8.57;;
24715;SDS011;12822;50.124;8.678;2022-10-31T08:08:12;26.60;;;8.90;;
24715;SDS011;12822;50.124;8.678;2022-10-31T08:10:38;14.60;;;8.95;;
24715;SDS011;12822;50.124;8.678;2022-10-31T08:13:09;20.35;;;8.77;;
24715;SDS011;12822;50.124;8.678;2022-10-31T08:15:35;16.88;;;8.50;;
24715;SDS011;12822;50.124;8.678;2022-10-31T08:18:05;16.30;;;8.38;;
24715;SDS011;12822;50.124;8.678;2022-10-31T08:20:31;15.10;;;8.65;;
24715;SDS011;12822;50.124;8.678;2022-10-31T08:23:00;11.75;;;7.30;;
24715;SDS011;12822;50.124;8.678;2022-10-31T08:25:28;18.67;;;8.15;;
24715;SDS011;12822;50.124;8.678;2022-10-31T08:27:54;22.80;;;8.25;;
24715;SDS011;12822;50.124;8.678;2022-10-31T08:30:21;18.02;;;9.65;;
24715;SDS011;12822;50.124;8.678;2022-10-31T08:32:50;15.70;;;8.93;;
24715;SDS011;12822;50.124;8.678;2022-10-31T08:35:22;14.93;;;8.27;;
24715;SDS011;12822;50.124;8.678;2022-10-31T08:37:52;18.55;;;8.63;;
24715;SDS011;12822;50.124;8.678;2022-10-31T08:40:19;16.20;;;9.43;;
24715;SDS011;12822;50.124;8.678;2022-10-31T08:42:45;20.65;;;9.05;;
24715;SDS011;12822;50.124;8.678;2022-10-31T08:45:14;15.90;;;8.95;;
24715;SDS011;12822;50.124;8.678;2022-10-31T08:47:40;13.35;;;8.77;;
24715;SDS011;12822;50.124;8.678;2022-10-31T08:50:06;15.32;;;8.25;;
24715;SDS011;12822;50.124;8.678;2022-10-31T08:52:33;17.90;;;8.98;;
24715;SDS011;12822;50.124;8.678;2022-10-31T08:54:59;17.40;;;9.50;;
24715;SDS011;12822;50.124;8.678;2022-10-31T08:57:25;21.75;;;9.70;;
24715;SDS011;12822;50.124;8.678;2022-10-31T08:59:50;18.83;;;10.07;;
24715;SDS011;12822;50.124;8.678;2022-10-31T09:02:16;16.73;;;9.27;;
24715;SDS011;12822;50.124;8.678;2022-10-31T09:04:42;14.77;;;9.60;;
24715;SDS011;12822;50.124;8.678;2022-10-31T09:07:08;20.10;;;8.80;;
24715;SDS011;12822;50.124;8.678;2022-10-31T09:09:34;16.35;;;9.48;;
24715;SDS011;12822;50.124;8.678;2022-10-31T09:12:00;14.32;;;9.48;;
24715;SDS011;12822;50.124;8.678;2022-10-31T09:14:26;19.27;;;10.00;;
24715;SDS011;12822;50.124;8.678;2022-10-31T09:16:52;18.77;;;10.13;;
24715;SDS011;12822;50.124;8.678;2022-10-31T09:19:18;18.17;;;11.20;;
24715;SDS011;12822;50.124;8.678;2022-10-31T09:21:44;17.92;;;10.57;;
24715;SDS011;12822;50.124;8.678;2022-10-31T09:24:11;23.55;;;10.82;;
24715;SDS011;12822;50.124;8.678;2022-10-31T09:26:37;15.15;;;8.98;;
24715;SDS011;12822;50.124;8.678;2022-10-31T09:29:03;16.08;;;10.20;;
24715;SDS011;12822;50.124;8.678;2022-10-31T09:31:29;19.08;;;9.88;;
24715;SDS011;12822;50.124;8.678;2022-10-31T09:33:55;14.50;;;8.10;;
24715;SDS011;12822;50.124;8.678;2022-10-31T09:36:21;15.40;;;9.27;;
24715;SDS011;12822;50.124;8.678;2022-10-31T09:38:47;19.35;;;10.20;;
24715;SDS011;12822;50.124;8.678;2022-10-31T09:46:27;17.98;;;10.05;;
24715;SDS011;12822;50.124;8.678;2022-10-31T09:51:23;19.13;;;10.30;;
24715;SDS011;12822;50.124;8.678;2022-10-31T09:56:25;24.83;;;11.60;;
24715;SDS011;12822;50.124;8.678;2022-10-31T09:58:55;18.40;;;10.15;;
24715;SDS011;12822;50.124;8.678;2022-10-31T10:03:51;17.17;;;10.43;;
24715;SDS011;12822;50.124;8.678;2022-10-31T10:06:19;17.88;;;10.27;;
24715;SDS011;12822;50.124;8.678;2022-10-31T10:08:47;20.00;;;10.77;;
24715;SDS011;12822;50.124;8.678;2022-10-31T10:11:32;18.17;;;10.15;;
24715;SDS011;12822;50.124;8.678;2022-10-31T10:19:13;20.23;;;9.00;;
24715;SDS011;12822;50.124;8.678;2022-10-31T10:24:56;19.60;;;9.35;;
24715;SDS011;12822;50.124;8.678;2022-10-31T10:29:47;18.42;;;10.35;;
24715;SDS011;12822;50.124;8.678;2022-10-31T10:32:25;21.88;;;11.38;;
24715;SDS011;12822;50.124;8.678;2022-10-31T10:34:58;19.35;;;10.52;;
24715;SDS011;12822;50.124;8.678;2022-10-31T10:37:30;23.77;;;10.82;;
24715;SDS011;12822;50.124;8.678;2022-10-31T10:40:01;18.95;;;11.50;;
24715;SDS011;12822;50.124;8.678;2022-10-31T10:42:28;21.17;;;11.18;;
24715;SDS011;12822;50.124;8.678;2022-10-31T10:45:15;23.95;;;11.63;;
24715;SDS011;12822;50.124;8.678;2022-10-31T10:48:09;18.65;;;10.88;;
24715;SDS011;12822;50.124;8.678;2022-10-31T10:50:39;21.17;;;11.07;;
24715;SDS011;12822;50.124;8.678;2022-10-31T10:55:44;18.13;;;11.82;;
24715;SDS011;12822;50.124;8.678;2022-10-31T10:58:14;22.55;;;10.98;;
24715;SDS011;12822;50.124;8.678;2022-10-31T11:00:41;27.20;;;11.32;;
24715;SDS011;12822;50.124;8.678;2022-10-31T11:03:09;24.98;;;11.70;;
24715;SDS011;12822;50.124;8.678;2022-10-31T11:08:07;22.00;;;11.52;;
24715;SDS011;12822;50.124;8.678;2022-10-31T11:10:34;19.08;;;11.13;;
24715;SDS011;12822;50.124;8.678;2022-10-31T11:13:05;20.05;;;11.90;;
24715;SDS011;12822;50.124;8.678;2022-10-31T11:15:33;21.42;;;11.27;;
24715;SDS011;12822;50.124;8.678;2022-10-31T11:18:00;23.02;;;12.98;;
24715;SDS011;12822;50.124;8.678;2022-10-31T11:20:29;26.40;;;12.13;;
24715;SDS011;12822;50.124;8.678;2022-10-31T11:23:04;21.67;;;12.38;;
24715;SDS011;12822;50.124;8.678;2022-10-31T11:25:30;27.00;;;13.60;;
24715;SDS011;12822;50.124;8.678;2022-10-31T11:28:04;20.48;;;11.50;;
24715;SDS011;12822;50.124;8.678;2022-10-31T11:30:30;20.55;;;11.13;;
24715;SDS011;12822;50.124;8.678;2022-10-31T11:33:00;28.73;;;11.73;;
24715;SDS011;12822;50.124;8.678;2022-10-31T11:35:27;23.45;;;11.63;;
24715;SDS011;12822;50.124;8.678;2022-10-31T11:37:54;24.50;;;12.32;;
24715;SDS011;12822;50.124;8.678;2022-10-31T11:40:26;21.90;;;11.90;;
24715;SDS011;12822;50.124;8.678;2022-10-31T11:42:54;28.92;;;11.90;;
24715;SDS011;12822;50.124;8.678;2022-10-31T11:47:51;19.42;;;10.20;;
24715;SDS011;12822;50.124;8.678;2022-10-31T11:50:22;26.52;;;10.63;;
24715;SDS011;12822;50.124;8.678;2022-10-31T11:52:48;21.80;;;9.70;;
24715;SDS011;12822;50.124;8.678;2022-10-31T11:55:16;17.85;;;9.02;;
24715;SDS011;12822;50.124;8.678;2022-10-31T12:00:31;18.45;;;9.43;;
24715;SDS011;12822;50.124;8.678;2022-10-31T12:03:10;19.92;;;8.90;;
24715;SDS011;12822;50.124;8.678;2022-10-31T12:05:36;18.67;;;9.75;;
24715;SDS011;12822;50.124;8.678;2022-10-31T12:08:04;18.45;;;9.57;;
24715;SDS011;12822;50.124;8.678;2022-10-31T12:10:39;21.92;;;10.40;;
24715;SDS011;12822;50.124;8.678;2022-10-31T12:15:57;14.50;;;8.60;;
24715;SDS011;12822;50.124;8.678;2022-10-31T12:26:49;16.10;;;8.93;;
24715;SDS011;12822;50.124;8.678;2022-10-31T12:40:03;15.90;;;8.10;;
24715;SDS011;12822;50.124;8.678;2022-10-31T12:42:26;18.17;;;7.50;;
24715;SDS011;12822;50.124;8.678;2022-10-31T12:44:59;17.60;;;8.07;;
24715;SDS011;12822;50.124;8.678;2022-10-31T12:47:32;16.55;;;7.05;;
24715;SDS011;12822;50.124;8.678;2022-10-31T12:55:04;14.43;;;7.57;;
24715;SDS011;12822;50.124;8.678;2022-10-31T13:00:10;14.57;;;7.38;;
24715;SDS011;12822;50.124;8.678;2022-10-31T13:07:43;20.70;;;7.47;;
24715;SDS011;12822;50.124;8.678;2022-10-31T13:10:21;18.50;;;8.00;;
24715;SDS011;12822;50.124;8.678;2022-10-31T13:12:49;16.27;;;7.28;;
24715;SDS011;12822;50.124;8.678;2022-10-31T13:15:17;22.60;;;7.93;;
24715;SDS011;12822;50.124;8.678;2022-10-31T13:17:45;17.05;;;6.28;;
24715;SDS011;12822;50.124;8.678;2022-10-31T13:22:42;19.85;;;6.93;;
24715;SDS011;12822;50.124;8.678;2022-10-31T13:25:11;16.98;;;6.65;;
24715;SDS011;12822;50.124;8.678;2022-10-31T13:27:51;14.65;;;7.57;;
24715;SDS011;12822;50.124;8.678;2022-10-31T13:30:19;15.82;;;6.80;;
24715;SDS011;12822;50.124;8.678;2022-10-31T13:35:37;15.75;;;5.82;;
24715;SDS011;12822;50.124;8.678;2022-10-31T13:40:33;12.88;;;5.47;;
24715;SDS011;12822;50.124;8.678;2022-10-31T13:43:06;15.55;;;5.85;;
24715;SDS011;12822;50.124;8.678;2022-10-31T13:45:46;17.83;;;5.80;;
24715;SDS011;12822;50.124;8.678;2022-10-31T13:50:39;18.98;;;6.32;;
24715;SDS011;12822;50.124;8.678;2022-10-31T13:55:39;18.38;;;6.45;;
24715;SDS011;12822;50.124;8.678;2022-10-31T13:58:19;15.55;;;5.90;;
24715;SDS011;12822;50.124;8.678;2022-10-31T14:00:45;16.95;;;6.72;;
24715;SDS011;12822;50.124;8.678;2022-10-31T14:03:19;15.07;;;6.00;;
24715;SDS011;12822;50.124;8.678;2022-10-31T14:05:51;20.13;;;6.20;;
24715;SDS011;12822;50.124;8.678;2022-10-31T14:08:19;15.57;;;6.47;;
24715;SDS011;12822;50.124;8.678;2022-10-31T14:10:47;17.67;;;6.40;;
24715;SDS011;12822;50.124;8.678;2022-10-31T14:15:40;19.02;;;6.70;;
24715;SDS011;12822;50.124;8.678;2022-10-31T14:18:18;14.88;;;5.57;;
24715;SDS011;12822;50.124;8.678;2022-10-31T14:20:46;12.98;;;5.35;;
24715;SDS011;12822;50.124;8.678;2022-10-31T14:28:40;16.83;;;6.25;;
24715;SDS011;12822;50.124;8.678;2022-10-31T14:31:21;13.23;;;6.45;;
24715;SDS011;12822;50.124;8.678;2022-10-31T14:33:50;17.60;;;6.10;;
24715;SDS011;12822;50.124;8.678;2022-10-31T14:36:18;20.75;;;6.47;;
24715;SDS011;12822;50.124;8.678;2022-10-31T14:46:33;14.65;;;5.95;;
24715;SDS011;12822;50.124;8.678;2022-10-31T14:51:43;21.40;;;6.28;;
24715;SDS011;12822;50.124;8.678;2022-10-31T14:54:11;11.65;;;5.63;;
24715;SDS011;12822;50.124;8.678;2022-10-31T14:56:41;13.25;;;5.95;;
24715;SDS011;12822;50.124;8.678;2022-10-31T14:59:09;13.45;;;6.35;;
24715;SDS011;12822;50.124;8.678;2022-10-31T15:01:38;12.55;;;5.35;;
24715;SDS011;12822;50.124;8.678;2022-10-31T15:04:18;16.63;;;6.45;;
24715;SDS011;12822;50.124;8.678;2022-10-31T15:06:47;18.30;;;6.40;;
24715;SDS011;12822;50.124;8.678;2022-10-31T15:09:24;17.17;;;5.97;;
24715;SDS011;12822;50.124;8.678;2022-10-31T15:11:50;15.80;;;6.20;;
24715;SDS011;12822;50.124;8.678;2022-10-31T15:14:21;15.88;;;6.32;;
24715;SDS011;12822;50.124;8.678;2022-10-31T15:16:47;18.58;;;6.90;;
24715;SDS011;12822;50.124;8.678;2022-10-31T15:19:15;22.13;;;6.88;;
24715;SDS011;12822;50.124;8.678;2022-10-31T15:21:43;14.52;;;5.95;;
24715;SDS011;12822;50.124;8.678;2022-10-31T15:24:13;16.70;;;6.25;;
24715;SDS011;12822;50.124;8.678;2022-10-31T15:26:43;15.93;;;6.38;;
24715;SDS011;12822;50.124;8.678;2022-10-31T15:29:14;15.73;;;6.45;;
24715;SDS011;12822;50.124;8.678;2022-10-31T15:34:39;21.45;;;7.05;;
24715;SDS011;12822;50.124;8.678;2022-10-31T15:37:12;13.05;;;5.85;;
24715;SDS011;12822;50.124;8.678;2022-10-31T15:39:38;19.00;;;6.53;;
24715;SDS011;12822;50.124;8.678;2022-10-31T15:42:13;12.52;;;6.40;;
24715;SDS011;12822;50.124;8.678;2022-10-31T15:44:40;15.82;;;6.65;;
24715;SDS011;12822;50.124;8.678;2022-10-31T15:47:13;16.38;;;6.95;;
24715;SDS011;12822;50.124;8.678;2022-10-31T15:49:42;20.33;;;7.00;;
24715;SDS011;12822;50.124;8.678;2022-10-31T15:54:44;17.55;;;7.03;;
24715;SDS011;12822;50.124;8.678;2022-10-31T15:57:11;14.18;;;7.22;;
24715;SDS011;12822;50.124;8.678;2022-10-31T15:59:37;16.08;;;7.15;;
24715;SDS011;12822;50.124;8.678;2022-10-31T16:02:09;18.35;;;6.90;;
24715;SDS011;12822;50.124;8.678;2022-10-31T16:04:35;18.38;;;6.97;;
24715;SDS011;12822;50.124;8.678;2022-10-31T16:07:02;22.35;;;7.72;;
24715;SDS011;12822;50.124;8.678;2022-10-31T16:09:28;23.13;;;7.68;;
24715;SDS011;12822;50.124;8.678;2022-10-31T16:11:55;18.40;;;7.70;;
24715;SDS011;12822;50.124;8.678;2022-10-31T16:14:24;16.23;;;7.20;;
24715;SDS011;12822;50.124;8.678;2022-10-31T16:16:54;20.40;;;8.05;;
24715;SDS011;12822;50.124;8.678;2022-10-31T16:19:22;22.70;;;8.07;;
24715;SDS011;12822;50.124;8.678;2022-10-31T16:21:50;19.50;;;9.07;;
24715;SDS011;12822;50.124;8.678;2022-10-31T16:24:25;20.92;;;8.25;;
24715;SDS011;12822;50.124;8.678;2022-10-31T16:26:58;21.52;;;8.70;;
24715;SDS011;12822;50.124;8.678;2022-10-31T16:29:27;24.35;;;9.80;;
24715;SDS011;12822;50.124;8.678;2022-10-31T16:31:54;17.33;;;9.57;;
24715;SDS011;12822;50.124;8.678;2022-10-31T16:34:21;18.92;;;8.60;;
24715;SDS011;12822;50.124;8.678;2022-10-31T16:36:47;23.58;;;9.52;;
24715;SDS011;12822;50.124;8.678;2022-10-31T16:39:13;24.23;;;10.18;;
24715;SDS011;12822;50.124;8.678;2022-10-31T16:41:42;19.10;;;9.23;;
24715;SDS011;12822;50.124;8.678;2022-10-31T16:44:16;20.15;;;9.55;;
24715;SDS011;12822;50.124;8.678;2022-10-31T16:46:43;22.58;;;9.82;;
24715;SDS011;12822;50.124;8.678;2022-10-31T16:49:09;21.33;;;9.88;;
24715;SDS011;12822;50.124;8.678;2022-10-31T16:51:35;22.73;;;10.02;;
24715;SDS011;12822;50.124;8.678;2022-10-31T16:54:01;23.60;;;10.18;;